Terminal Aerodrome Forecast
Issued by NWS

Home | Current Version | Previous Version | Text Only | Print | Product List | Glossary On
Versions: 1 2 3 4 5 6 7 8 9 10 11 12 13 14 15 16 17 18 19 20 21 22 23 24 25 26 27 28 29
000
FTUS42 KJAX 262228 AAB
TAFCRG
TAF AMD
KCRG 262228Z 2622/2718 11009KT 5SM SHRA BR VCTS BKN025CB BKN040
      OVC150
      TEMPO 2622/2624 27015G25KT 1SM +SHRA BR SCT015 BKN025 OVC040
     FM270200 21007KT P6SM SCT030 BKN120
     FM270700 21009KT P6SM SCT005 BKN012
     FM271200 21006KT 5SM SHRA BR BKN006 OVC015
     FM271600 25011G18KT P6SM BKN035=

USA.gov is the U.S. government's official web portal to all federal, state and local government web resources and services.